createdAt,value
2018-09-04T00:01:52.641Z,25.97
2018-09-04T00:04:23.048Z,26.90
2018-09-04T00:06:53.104Z,26.57
2018-09-04T00:09:23.688Z,28.80
2018-09-04T00:11:54.496Z,26.67
2018-09-04T00:14:25.297Z,27.23
2018-09-04T00:16:55.314Z,27.10
2018-09-04T00:19:25.350Z,29.57
2018-09-04T00:21:56.378Z,31.40
2018-09-04T00:24:28.079Z,28.83
2018-09-04T00:27:00.131Z,30.83
2018-09-04T00:29:31.283Z,27.50
2018-09-04T00:32:02.726Z,28.53
2018-09-04T00:34:35.213Z,29.50
2018-09-04T00:37:06.641Z,28.77
2018-09-04T00:39:36.751Z,28.63
2018-09-04T00:42:08.762Z,29.40
2018-09-04T00:44:39.690Z,29.17
2018-09-04T00:47:09.753Z,30.77
2018-09-04T00:49:39.552Z,31.10
2018-09-04T00:52:10.220Z,28.87
2018-09-04T00:54:45.780Z,30.30
2018-09-04T00:57:16.018Z,29.20
2018-09-04T00:59:46.929Z,30.17
2018-09-04T01:02:19.109Z,28.87
2018-09-04T01:04:50.458Z,30.63
2018-09-04T01:07:20.634Z,31.07
2018-09-04T01:09:51.193Z,28.80
2018-09-04T01:12:21.638Z,29.30
2018-09-04T01:14:56.372Z,33.83
2018-09-04T01:17:28.047Z,29.37
2018-09-04T01:19:58.369Z,29.60
2018-09-04T01:22:28.374Z,33.20
2018-09-04T01:24:58.225Z,33.50
2018-09-04T01:27:29.252Z,33.63
2018-09-04T01:29:59.772Z,35.53
2018-09-04T01:32:31.987Z,33.13
2018-09-04T01:35:01.941Z,32.57
2018-09-04T01:37:32.102Z,31.33
2018-09-04T01:40:05.000Z,35.53
2018-09-04T01:42:35.922Z,31.43
2018-09-04T01:45:06.884Z,32.60
2018-09-04T01:47:37.112Z,34.10
2018-09-04T01:50:07.260Z,32.27
2018-09-04T01:52:37.598Z,34.17
2018-09-04T01:55:07.975Z,33.40
2018-09-04T01:57:38.844Z,36.97
2018-09-04T02:00:10.392Z,35.83
2018-09-04T02:02:41.162Z,36.03
2018-09-04T02:05:13.516Z,34.07
2018-09-04T02:07:43.438Z,35.40
2018-09-04T02:10:14.515Z,37.90
2018-09-04T02:12:46.913Z,36.73
2018-09-04T02:15:16.784Z,35.57
2018-09-04T02:17:46.726Z,34.30
2018-09-04T02:20:18.861Z,34.03
2018-09-04T02:22:50.727Z,43.90
2018-09-04T02:25:20.562Z,37.07
2018-09-04T02:27:50.996Z,45.03
2018-09-04T02:30:20.823Z,38.17
2018-09-04T02:32:50.804Z,35.60
2018-09-04T02:35:20.665Z,38.70
2018-09-04T02:37:51.145Z,43.17
2018-09-04T02:40:23.065Z,49.10
2018-09-04T02:42:54.920Z,44.70
2018-09-04T02:45:25.953Z,64.83
2018-09-04T02:47:56.460Z,44.60
2018-09-04T02:50:27.653Z,54.93
2018-09-04T02:52:58.723Z,46.77
2018-09-04T02:55:28.724Z,50.00
2018-09-04T02:57:59.928Z,44.13
2018-09-04T03:00:30.873Z,47.00
2018-09-04T03:03:01.675Z,43.87
2018-09-04T03:05:32.501Z,47.10
2018-09-04T03:08:03.863Z,41.93
2018-09-04T03:10:33.813Z,44.57
2018-09-04T03:13:04.596Z,42.73
2018-09-04T03:15:36.932Z,45.17
2018-09-04T03:18:07.009Z,41.57
2018-09-04T03:20:38.195Z,41.80
2018-09-04T03:23:08.765Z,43.53
2018-09-04T03:25:38.849Z,43.57
2018-09-04T03:28:11.400Z,45.00
2018-09-04T03:30:41.372Z,44.13
2018-09-04T03:33:11.348Z,44.87
2018-09-04T03:35:41.293Z,46.87
2018-09-04T03:38:11.695Z,45.73
2018-09-04T03:40:41.542Z,44.43
2018-09-04T03:43:11.527Z,44.83
2018-09-04T03:45:41.918Z,43.87
2018-09-04T03:48:11.795Z,45.10
2018-09-04T03:50:42.004Z,41.53
2018-09-04T03:53:11.892Z,44.03
2018-09-04T03:55:41.896Z,42.63
2018-09-04T03:58:13.632Z,45.53
2018-09-04T04:00:43.590Z,43.77
2018-09-04T04:03:13.667Z,43.87
2018-09-04T04:05:44.650Z,44.17
2018-09-04T04:08:14.686Z,46.90
2018-09-04T04:10:44.716Z,45.43
2018-09-04T04:13:14.718Z,46.27
2018-09-04T04:15:44.689Z,44.03
2018-09-04T04:18:21.523Z,42.77
2018-09-04T04:21:00.571Z,46.40
2018-09-04T04:23:31.581Z,45.07
2018-09-04T04:26:02.952Z,49.53
2018-09-04T04:28:33.427Z,40.90
2018-09-04T04:31:03.788Z,47.10
2018-09-04T04:33:33.707Z,42.27
2018-09-04T04:36:04.610Z,42.40
2018-09-04T04:38:34.761Z,47.10
2018-09-04T04:41:04.646Z,42.87
2018-09-04T04:43:34.446Z,43.73
2018-09-04T04:46:05.399Z,46.23
2018-09-04T04:48:36.329Z,44.37
2018-09-04T04:51:06.537Z,43.73
2018-09-04T04:53:38.812Z,44.40
2018-09-04T04:56:10.017Z,43.83
2018-09-04T04:58:40.051Z,46.67
2018-09-04T05:01:10.407Z,44.47
2018-09-04T05:03:42.407Z,45.90
2018-09-04T05:06:13.658Z,42.07
2018-09-04T05:08:43.683Z,46.50
2018-09-04T05:11:14.997Z,44.70
2018-09-04T05:13:45.812Z,39.90
2018-09-04T05:16:17.104Z,43.80
2018-09-04T05:18:47.625Z,40.60
2018-09-04T05:21:17.687Z,42.60
2018-09-04T05:23:47.846Z,42.93
2018-09-04T05:26:18.840Z,40.77
2018-09-04T05:28:49.030Z,40.37
2018-09-04T05:31:21.453Z,40.07
2018-09-04T05:33:51.775Z,40.93
2018-09-04T05:36:22.495Z,42.03
2018-09-04T05:38:53.768Z,40.13
2018-09-04T05:41:24.766Z,43.07
2018-09-04T05:43:58.229Z,41.33
2018-09-04T05:46:39.480Z,42.80
2018-09-04T05:51:52.330Z,42.40
2018-09-04T05:54:23.679Z,42.77
2018-09-04T05:56:56.975Z,40.23
2018-09-04T05:59:27.250Z,43.87
2018-09-04T06:01:57.165Z,41.57
2018-09-04T06:04:27.312Z,44.67
2018-09-04T06:06:57.177Z,45.03
2018-09-04T06:09:28.207Z,43.30
2018-09-04T06:11:58.100Z,45.00
2018-09-04T06:14:28.121Z,45.03
2018-09-04T06:16:57.967Z,43.07
2018-09-04T06:19:31.006Z,42.00
2018-09-04T06:22:00.972Z,40.07
2018-09-04T06:24:30.900Z,43.07
2018-09-04T06:27:02.007Z,45.70
2018-09-04T06:29:32.319Z,43.27
2018-09-04T06:32:03.279Z,46.73
2018-09-04T06:34:34.914Z,47.03
2018-09-04T06:37:07.072Z,52.20
2018-09-04T06:39:44.207Z,48.00
2018-09-04T06:42:14.290Z,47.30
2018-09-04T06:44:45.116Z,42.17
2018-09-04T06:47:15.383Z,47.37
2018-09-04T06:49:47.152Z,47.50
2018-09-04T06:52:21.779Z,50.80
2018-09-04T06:54:52.304Z,47.93
2018-09-04T06:57:23.106Z,47.13
2018-09-04T06:59:55.230Z,44.20
2018-09-04T07:02:26.828Z,49.07
2018-09-04T07:04:56.912Z,48.23
2018-09-04T07:07:28.679Z,49.53
2018-09-04T07:09:59.190Z,49.73
2018-09-04T07:12:29.868Z,43.77
2018-09-04T07:15:00.241Z,46.60
2018-09-04T07:17:30.244Z,45.43
2018-09-04T07:20:03.180Z,58.50
2018-09-04T07:22:34.424Z,46.33
2018-09-04T07:25:05.416Z,46.63
2018-09-04T07:27:37.708Z,48.87
2018-09-04T07:35:17.519Z,47.43
2018-09-04T07:37:59.416Z,45.73
2018-09-04T07:40:35.220Z,45.43
2018-09-04T07:43:13.074Z,48.10
2018-09-04T07:45:45.433Z,43.40
2018-09-04T07:48:15.420Z,42.10
2018-09-04T07:50:46.518Z,43.03
2018-09-04T07:53:17.531Z,43.87
2018-09-04T07:55:48.690Z,45.40
2018-09-04T07:58:20.359Z,45.87
2018-09-04T08:00:51.822Z,56.60
2018-09-04T08:03:22.228Z,43.50
2018-09-04T08:05:52.513Z,43.70
2018-09-04T08:08:35.116Z,44.90
2018-09-04T08:11:24.545Z,44.47
2018-09-04T08:13:57.629Z,41.50
2018-09-04T08:16:31.475Z,39.07
2018-09-04T08:19:01.654Z,41.90
2018-09-04T08:21:35.832Z,38.20
2018-09-04T08:24:07.876Z,40.83
2018-09-04T08:26:38.256Z,38.70
2018-09-04T08:29:21.707Z,38.53
2018-09-04T08:31:52.372Z,36.80
2018-09-04T08:34:22.746Z,36.80
2018-09-04T08:36:52.816Z,35.00
2018-09-04T08:39:23.798Z,32.43
2018-09-04T08:42:02.946Z,27.93
2018-09-04T08:44:36.176Z,26.60
2018-09-04T08:47:07.108Z,25.60
2018-09-04T08:49:37.476Z,27.20
2018-09-04T08:52:07.566Z,25.43
2018-09-04T08:54:43.949Z,26.10
2018-09-04T08:57:14.287Z,25.30
2018-09-04T08:59:46.156Z,24.73
2018-09-04T09:02:16.466Z,23.10
2018-09-04T09:04:49.822Z,22.93
2018-09-04T09:07:21.095Z,24.93
2018-09-04T09:09:51.229Z,23.00
2018-09-04T09:12:21.455Z,25.73
2018-09-04T09:14:52.872Z,27.47
2018-09-04T09:17:41.603Z,27.73
2018-09-04T09:20:20.462Z,28.77
2018-09-04T09:22:53.298Z,29.73
2018-09-04T09:25:24.327Z,26.27
2018-09-04T09:27:55.938Z,23.67
2018-09-04T09:30:26.736Z,23.60
2018-09-04T09:32:57.233Z,23.00
2018-09-04T09:35:27.616Z,27.87
2018-09-04T09:37:58.632Z,27.40
2018-09-04T09:40:29.959Z,22.30
2018-09-04T09:43:01.776Z,23.73
2018-09-04T09:45:31.961Z,24.30
2018-09-04T09:48:08.748Z,23.03
2018-09-04T09:51:03.085Z,20.03
2018-09-04T09:53:36.181Z,20.77
2018-09-04T09:56:11.971Z,20.10
2018-09-04T09:58:42.233Z,22.10
2018-09-04T10:01:22.798Z,20.70
2018-09-04T10:04:01.807Z,18.97
2018-09-04T10:06:44.786Z,17.10
2018-09-04T10:09:22.306Z,21.40
2018-09-04T10:11:55.188Z,17.37
2018-09-04T10:14:26.692Z,16.33
2018-09-04T10:16:58.303Z,14.87
2018-09-04T10:19:35.020Z,14.07
2018-09-04T10:22:05.285Z,15.10
2018-09-04T10:24:35.876Z,15.73
2018-09-04T10:27:07.589Z,15.40
2018-09-04T10:29:39.531Z,15.90
2018-09-04T10:32:09.727Z,16.70
2018-09-04T10:34:45.729Z,14.90
2018-09-04T10:37:29.111Z,13.40
2018-09-04T10:42:15.288Z,13.63
2018-09-04T10:44:46.823Z,13.23
2018-09-04T10:47:19.672Z,16.87
2018-09-04T10:49:52.926Z,12.43
2018-09-04T10:52:32.436Z,13.47
2018-09-04T10:55:06.603Z,13.77
2018-09-04T10:57:37.675Z,16.80
2018-09-04T11:00:09.656Z,11.30
2018-09-04T11:03:06.426Z,11.83
2018-09-04T11:05:55.310Z,11.10
2018-09-04T11:08:34.884Z,15.00
2018-09-04T11:11:41.537Z,25.30
2018-09-04T11:14:23.667Z,20.40
2018-09-04T11:17:11.854Z,14.03
2018-09-04T11:19:46.078Z,15.07
2018-09-04T11:22:16.962Z,15.57
2018-09-04T11:24:48.579Z,16.70
2018-09-04T11:27:20.679Z,16.20
2018-09-04T11:29:53.003Z,16.27
2018-09-04T11:32:24.118Z,15.03
2018-09-04T11:34:54.861Z,13.73
2018-09-04T11:37:26.113Z,14.20
2018-09-04T11:39:56.817Z,16.30
2018-09-04T11:42:27.839Z,13.40
2018-09-04T11:44:59.166Z,12.60
2018-09-04T11:47:29.402Z,15.90
2018-09-04T11:50:00.157Z,15.40
2018-09-04T11:52:39.361Z,14.17
2018-09-04T11:55:17.632Z,14.17
2018-09-04T11:57:53.224Z,14.30
2018-09-04T12:00:35.520Z,12.90
2018-09-04T12:03:06.793Z,11.23
2018-09-04T12:05:37.455Z,12.17
2018-09-04T12:08:08.642Z,15.23
2018-09-04T12:10:41.786Z,16.27
2018-09-04T12:13:22.254Z,13.00
2018-09-04T12:15:52.433Z,16.90
2018-09-04T12:18:24.985Z,13.80
2018-09-04T12:20:58.259Z,13.70
2018-09-04T12:23:32.211Z,15.67
2018-09-04T12:26:03.781Z,14.67
2018-09-04T12:28:34.370Z,15.50
2018-09-04T12:31:07.006Z,14.93
2018-09-04T12:33:40.521Z,16.43
2018-09-04T12:36:10.629Z,13.23
2018-09-04T12:38:43.685Z,14.00
2018-09-04T12:41:23.821Z,12.30
2018-09-04T12:43:56.644Z,12.67
2018-09-04T12:46:35.591Z,12.97
2018-09-04T12:49:17.191Z,10.53
2018-09-04T12:51:54.369Z,12.43
2018-09-04T12:54:25.492Z,11.37
2018-09-04T12:57:05.652Z,11.50
2018-09-04T12:59:37.551Z,12.60
2018-09-04T13:02:10.428Z,13.37
2018-09-04T13:04:42.042Z,12.57
2018-09-04T13:07:12.968Z,13.97
2018-09-04T13:09:46.911Z,16.13
2018-09-04T13:12:19.132Z,24.13
2018-09-04T13:17:27.100Z,16.00
2018-09-04T13:20:01.441Z,15.63
2018-09-04T13:22:33.747Z,15.03
2018-09-04T13:25:08.189Z,14.10
2018-09-04T13:27:39.053Z,15.67
2018-09-04T13:30:09.317Z,13.97
2018-09-04T13:32:39.782Z,16.77
2018-09-04T13:35:10.938Z,13.27
2018-09-04T13:37:41.367Z,13.60
2018-09-04T13:40:11.692Z,14.53
2018-09-04T13:42:42.816Z,13.40
2018-09-04T13:45:14.619Z,13.63
2018-09-04T13:47:45.899Z,12.63
2018-09-04T13:50:23.241Z,14.50
2018-09-04T13:52:53.933Z,14.33
2018-09-04T13:55:24.257Z,14.43
2018-09-04T13:57:55.875Z,14.60
2018-09-04T14:00:27.064Z,14.47
2018-09-04T14:02:57.983Z,16.37
2018-09-04T14:05:51.677Z,14.17
2018-09-04T14:08:24.360Z,24.17
2018-09-04T14:10:55.709Z,15.50
2018-09-04T14:13:39.128Z,17.07
2018-09-04T14:16:17.744Z,14.63
2018-09-04T14:18:58.225Z,15.80
2018-09-04T14:21:28.809Z,18.93
2018-09-04T14:24:00.595Z,18.07
2018-09-04T14:26:33.240Z,19.63
2018-09-04T14:29:06.957Z,17.20
2018-09-04T14:31:36.599Z,21.07
2018-09-04T14:34:07.579Z,18.93
2018-09-04T14:36:38.675Z,15.97
2018-09-04T14:39:09.085Z,16.47
2018-09-04T14:41:41.537Z,16.97
2018-09-04T14:44:12.935Z,22.10
2018-09-04T14:46:47.551Z,16.27
2018-09-04T14:49:18.337Z,17.50
2018-09-04T14:51:50.584Z,16.50
2018-09-04T14:54:20.721Z,16.30
2018-09-04T14:57:00.455Z,15.07
2018-09-04T15:00:17.048Z,15.57
2018-09-04T15:02:53.621Z,17.17
2018-09-04T15:05:35.365Z,17.27
2018-09-04T15:08:10.638Z,17.13
2018-09-04T15:10:48.402Z,16.60
2018-09-04T15:13:23.306Z,17.03
2018-09-04T15:16:09.211Z,15.53
2018-09-04T15:18:57.194Z,15.60
2018-09-04T15:22:11.784Z,16.43
2018-09-04T15:24:52.090Z,15.57
2018-09-04T15:30:13.035Z,16.67
2018-09-04T15:32:50.911Z,18.80
2018-09-04T15:35:21.815Z,16.90
2018-09-04T15:37:53.037Z,16.30
2018-09-04T15:40:25.769Z,17.50
2018-09-04T15:42:56.741Z,16.97
2018-09-04T15:45:27.752Z,16.90
2018-09-04T15:47:59.054Z,17.00
2018-09-04T15:50:29.278Z,13.80
2018-09-04T15:52:59.883Z,11.20
2018-09-04T15:55:31.976Z,12.73
2018-09-04T15:58:03.510Z,15.60
2018-09-04T16:00:33.695Z,17.90
2018-09-04T16:03:04.274Z,21.20
2018-09-04T16:05:39.864Z,31.20
2018-09-04T16:08:10.430Z,25.87
2018-09-04T16:10:41.781Z,27.17
2018-09-04T16:15:54.588Z,26.80
2018-09-04T16:24:21.469Z,32.97
2018-09-04T16:26:56.613Z,29.57
2018-09-04T16:29:33.725Z,34.50
2018-09-04T16:32:14.374Z,32.40
2018-09-04T16:34:47.818Z,34.00
2018-09-04T16:37:29.450Z,33.97
2018-09-04T16:44:14.035Z,37.07
2018-09-04T16:46:47.737Z,55.63
2018-09-04T16:49:25.865Z,48.73
2018-09-04T16:52:11.380Z,42.17
2018-09-04T16:55:07.094Z,39.30
2018-09-04T16:57:47.305Z,36.73
2018-09-04T17:00:21.209Z,39.20
2018-09-04T17:02:55.056Z,36.73
2018-09-04T17:05:26.690Z,36.00
2018-09-04T17:08:05.652Z,39.67
2018-09-04T17:10:37.619Z,36.27
2018-09-04T17:13:13.155Z,38.00
2018-09-04T17:15:44.278Z,37.13
2018-09-04T17:18:18.920Z,36.33
2018-09-04T17:20:50.795Z,36.57
2018-09-04T17:23:47.581Z,44.40
2018-09-04T17:26:34.981Z,37.10
2018-09-04T17:29:11.567Z,39.03
2018-09-04T17:31:54.093Z,41.90
2018-09-04T17:34:25.857Z,38.07
2018-09-04T17:36:59.810Z,35.60
2018-09-04T17:39:34.281Z,34.10
2018-09-04T17:42:04.954Z,36.10
2018-09-04T17:44:38.413Z,34.53
2018-09-04T17:47:10.979Z,34.00
2018-09-04T17:49:47.348Z,33.60
2018-09-04T17:52:49.404Z,34.40
2018-09-04T17:55:38.691Z,35.93
2018-09-04T17:58:11.613Z,36.70
2018-09-04T18:00:53.261Z,35.40
2018-09-04T18:03:32.924Z,37.93
2018-09-04T18:06:17.463Z,37.03
2018-09-04T18:08:54.704Z,39.27
2018-09-04T18:11:26.098Z,37.10
2018-09-04T18:14:02.699Z,38.20
2018-09-04T18:16:34.468Z,42.70
2018-09-04T18:19:08.563Z,42.20
2018-09-04T18:21:49.598Z,47.77
2018-09-04T18:24:40.248Z,43.90
2018-09-04T18:27:25.793Z,43.37
2018-09-04T18:33:00.110Z,48.20
2018-09-04T18:35:49.798Z,45.20
2018-09-04T18:38:30.110Z,43.53
2018-09-04T18:41:05.339Z,64.00
2018-09-04T18:46:44.947Z,61.98
2018-09-04T18:49:30.160Z,52.20
2018-09-04T18:52:16.424Z,43.37
2018-09-04T18:55:12.688Z,45.43
2018-09-04T18:58:12.085Z,44.90
2018-09-04T19:00:47.422Z,45.10
2018-09-04T19:06:07.236Z,45.00
2018-09-04T19:08:42.454Z,42.13
2018-09-04T19:11:14.720Z,42.87
2018-09-04T19:13:45.100Z,42.60
2018-09-04T19:16:24.911Z,49.20
2018-09-04T19:22:17.412Z,47.93
2018-09-04T19:24:51.298Z,54.70
2018-09-04T19:27:24.477Z,40.47
2018-09-04T19:30:05.636Z,48.37
2018-09-04T19:32:36.972Z,47.63
2018-09-04T19:35:24.598Z,42.83
2018-09-04T19:38:04.493Z,41.80
2018-09-04T19:40:41.624Z,42.97
2018-09-04T19:43:40.609Z,44.57
2018-09-04T19:46:15.602Z,38.37
2018-09-04T19:48:48.728Z,45.73
2018-09-04T19:51:20.860Z,51.10
2018-09-04T19:55:06.639Z,40.60
2018-09-04T19:57:52.046Z,48.17
2018-09-04T20:04:33.358Z,42.13
2018-09-04T20:07:18.298Z,44.73
2018-09-04T20:09:49.851Z,41.40
2018-09-04T20:12:20.137Z,37.53
2018-09-04T20:14:50.971Z,43.00
2018-09-04T20:17:22.978Z,44.00
2018-09-04T20:19:58.839Z,42.23
2018-09-04T20:22:34.461Z,43.30
2018-09-04T20:25:16.195Z,42.77
2018-09-04T20:27:50.307Z,43.23
2018-09-04T20:30:29.885Z,44.03
2018-09-04T20:33:04.315Z,41.80
2018-09-04T20:35:35.919Z,45.17
2018-09-04T20:38:08.305Z,42.93
2018-09-04T20:40:47.705Z,39.90
2018-09-04T20:43:32.030Z,39.97
2018-09-04T20:46:06.460Z,44.10
2018-09-04T20:48:37.745Z,41.77
2018-09-04T20:51:10.829Z,41.63
2018-09-04T20:53:47.295Z,41.70
2018-09-04T20:56:19.895Z,44.50
2018-09-04T20:59:02.515Z,44.13
2018-09-04T21:01:44.944Z,46.10
2018-09-04T21:04:27.241Z,45.80
2018-09-04T21:07:02.567Z,55.40
2018-09-04T21:09:43.864Z,56.33
2018-09-04T21:12:14.462Z,60.30
2018-09-04T21:14:48.584Z,52.30
2018-09-04T21:17:31.850Z,55.50
2018-09-04T21:20:04.408Z,56.47
2018-09-04T21:22:42.217Z,53.00
2018-09-04T21:25:19.555Z,58.10
2018-09-04T21:27:53.509Z,61.43
2018-09-04T21:30:23.984Z,54.73
2018-09-04T21:32:55.555Z,53.20
2018-09-04T21:35:34.150Z,55.30
2018-09-04T21:38:14.899Z,55.53
2018-09-04T21:40:51.591Z,55.27
2018-09-04T21:43:22.130Z,56.87
2018-09-04T21:45:55.090Z,57.90
2018-09-04T21:48:30.022Z,55.50
2018-09-04T21:51:00.729Z,59.10
2018-09-04T21:53:31.281Z,55.70
2018-09-04T21:56:03.250Z,56.27
2018-09-04T21:58:37.532Z,57.07
2018-09-04T22:01:10.923Z,56.87
2018-09-04T22:03:44.534Z,62.57
2018-09-04T22:06:15.771Z,68.40
2018-09-04T22:08:46.296Z,56.57
2018-09-04T22:11:17.939Z,52.97
2018-09-04T22:13:48.648Z,55.70
2018-09-04T22:16:20.911Z,59.40
2018-09-04T22:18:55.079Z,59.93
2018-09-04T22:21:27.947Z,55.53
2018-09-04T22:23:59.774Z,58.77
2018-09-04T22:26:35.718Z,55.87
2018-09-04T22:29:28.554Z,57.73
2018-09-04T22:32:12.310Z,53.90
2018-09-04T22:34:44.577Z,60.13
2018-09-04T22:37:16.461Z,58.60
2018-09-04T22:39:48.914Z,60.47
2018-09-04T22:42:19.708Z,66.13
2018-09-04T22:44:50.868Z,59.00
2018-09-04T22:47:21.694Z,60.50
2018-09-04T22:52:00.159Z,57.13
2018-09-04T22:54:30.445Z,58.20
2018-09-04T22:57:01.048Z,55.33
2018-09-04T22:59:37.794Z,60.00
2018-09-04T23:02:10.544Z,55.97
2018-09-04T23:04:43.258Z,55.30
2018-09-04T23:07:14.321Z,56.50
2018-09-04T23:09:46.333Z,59.07
2018-09-04T23:12:18.453Z,57.43
2018-09-04T23:14:55.466Z,59.40
2018-09-04T23:17:33.442Z,64.60
2018-09-04T23:20:04.738Z,62.13
2018-09-04T23:22:34.836Z,58.73
2018-09-04T23:25:08.054Z,59.20
2018-09-04T23:27:39.862Z,60.57
2018-09-04T23:30:14.128Z,61.83
2018-09-04T23:32:45.592Z,69.57
2018-09-04T23:35:25.777Z,61.60
2018-09-04T23:37:56.797Z,61.17
2018-09-04T23:40:30.708Z,56.33
2018-09-04T23:43:01.933Z,56.83
2018-09-04T23:45:32.227Z,64.90
2018-09-04T23:48:03.199Z,57.87
2018-09-04T23:50:38.253Z,56.67
2018-09-04T23:53:17.003Z,56.40
2018-09-04T23:55:51.614Z,52.73
2018-09-04T23:58:29.663Z,55.20
